sensor_id;sensor_type;location;lat;lon;timestamp;temperature;humidity
10233;DHT22;5161;48.174;11.756;2023-07-29T00:02:24;19.80;81.90
10233;DHT22;5161;48.174;11.756;2023-07-29T00:04:49;19.80;81.80
10233;DHT22;5161;48.174;11.756;2023-07-29T00:07:15;19.80;82.00
10233;DHT22;5161;48.174;11.756;2023-07-29T00:09:40;19.80;82.10
10233;DHT22;5161;48.174;11.756;2023-07-29T00:12:06;19.80;82.10
10233;DHT22;5161;48.174;11.756;2023-07-29T00:14:31;19.80;81.90
10233;DHT22;5161;48.174;11.756;2023-07-29T00:16:57;19.80;81.90
10233;DHT22;5161;48.174;11.756;2023-07-29T00:19:23;19.80;81.80
10233;DHT22;5161;48.174;11.756;2023-07-29T00:21:49;19.80;81.70
10233;DHT22;5161;48.174;11.756;2023-07-29T00:24:14;19.80;81.80
10233;DHT22;5161;48.174;11.756;2023-07-29T00:26:40;19.80;81.60
10233;DHT22;5161;48.174;11.756;2023-07-29T00:29:05;19.80;81.80
10233;DHT22;5161;48.174;11.756;2023-07-29T00:31:31;19.80;81.60
10233;DHT22;5161;48.174;11.756;2023-07-29T00:33:57;19.70;81.70
10233;DHT22;5161;48.174;11.756;2023-07-29T00:36:23;19.70;81.60
10233;DHT22;5161;48.174;11.756;2023-07-29T00:38:49;19.70;81.50
10233;DHT22;5161;48.174;11.756;2023-07-29T00:41:14;19.70;81.50
10233;DHT22;5161;48.174;11.756;2023-07-29T00:43:40;19.60;81.50
10233;DHT22;5161;48.174;11.756;2023-07-29T00:46:07;19.60;81.60
10233;DHT22;5161;48.174;11.756;2023-07-29T00:48:33;19.60;81.60
10233;DHT22;5161;48.174;11.756;2023-07-29T00:50:59;19.60;81.50
10233;DHT22;5161;48.174;11.756;2023-07-29T00:53:25;19.50;81.50
10233;DHT22;5161;48.174;11.756;2023-07-29T00:55:50;19.50;81.50
10233;DHT22;5161;48.174;11.756;2023-07-29T00:58:16;19.60;81.60
10233;DHT22;5161;48.174;11.756;2023-07-29T01:00:41;19.50;81.40
10233;DHT22;5161;48.174;11.756;2023-07-29T01:03:07;19.50;81.40
10233;DHT22;5161;48.174;11.756;2023-07-29T01:05:40;19.50;81.30
10233;DHT22;5161;48.174;11.756;2023-07-29T01:08:25;19.50;81.40
10233;DHT22;5161;48.174;11.756;2023-07-29T01:11:01;19.60;81.50
10233;DHT22;5161;48.174;11.756;2023-07-29T01:13:48;19.50;81.10
10233;DHT22;5161;48.174;11.756;2023-07-29T01:16:20;19.60;81.40
10233;DHT22;5161;48.174;11.756;2023-07-29T01:18:47;19.60;81.20
10233;DHT22;5161;48.174;11.756;2023-07-29T01:21:14;19.60;81.30
10233;DHT22;5161;48.174;11.756;2023-07-29T01:23:41;19.50;81.20
10233;DHT22;5161;48.174;11.756;2023-07-29T01:26:06;19.50;81.30
10233;DHT22;5161;48.174;11.756;2023-07-29T01:28:32;19.40;81.30
10233;DHT22;5161;48.174;11.756;2023-07-29T01:31:13;19.40;81.40
10233;DHT22;5161;48.174;11.756;2023-07-29T01:33:52;19.40;81.40
10233;DHT22;5161;48.174;11.756;2023-07-29T01:36:21;19.40;81.30
10233;DHT22;5161;48.174;11.756;2023-07-29T01:38:49;19.50;81.40
10233;DHT22;5161;48.174;11.756;2023-07-29T01:41:16;19.50;81.40
10233;DHT22;5161;48.174;11.756;2023-07-29T01:43:42;19.40;81.20
10233;DHT22;5161;48.174;11.756;2023-07-29T01:46:13;19.50;81.30
10233;DHT22;5161;48.174;11.756;2023-07-29T01:48:39;19.40;81.20
10233;DHT22;5161;48.174;11.756;2023-07-29T01:51:05;19.40;81.10
10233;DHT22;5161;48.174;11.756;2023-07-29T01:53:31;19.40;81.10
10233;DHT22;5161;48.174;11.756;2023-07-29T01:55:57;19.40;81.20
10233;DHT22;5161;48.174;11.756;2023-07-29T01:58:23;19.40;81.30
10233;DHT22;5161;48.174;11.756;2023-07-29T02:00:48;19.40;81.30
10233;DHT22;5161;48.174;11.756;2023-07-29T02:03:14;19.40;81.30
10233;DHT22;5161;48.174;11.756;2023-07-29T02:05:40;19.40;81.40
10233;DHT22;5161;48.174;11.756;2023-07-29T02:08:07;19.40;81.20
10233;DHT22;5161;48.174;11.756;2023-07-29T02:10:32;19.30;81.10
10233;DHT22;5161;48.174;11.756;2023-07-29T02:12:58;19.30;81.40
10233;DHT22;5161;48.174;11.756;2023-07-29T02:15:23;19.30;81.30
10233;DHT22;5161;48.174;11.756;2023-07-29T02:17:50;19.30;81.50
10233;DHT22;5161;48.174;11.756;2023-07-29T02:20:16;19.30;81.40
10233;DHT22;5161;48.174;11.756;2023-07-29T02:22:42;19.40;81.40
10233;DHT22;5161;48.174;11.756;2023-07-29T02:25:08;19.30;81.30
10233;DHT22;5161;48.174;11.756;2023-07-29T02:27:33;19.30;81.30
10233;DHT22;5161;48.174;11.756;2023-07-29T02:29:59;19.30;81.30
10233;DHT22;5161;48.174;11.756;2023-07-29T02:32:24;19.30;81.30
10233;DHT22;5161;48.174;11.756;2023-07-29T02:34:50;19.30;81.30
10233;DHT22;5161;48.174;11.756;2023-07-29T02:37:16;19.20;81.30
10233;DHT22;5161;48.174;11.756;2023-07-29T02:39:42;19.30;81.40
10233;DHT22;5161;48.174;11.756;2023-07-29T02:42:07;19.30;81.40
10233;DHT22;5161;48.174;11.756;2023-07-29T02:44:33;19.20;81.20
10233;DHT22;5161;48.174;11.756;2023-07-29T02:46:58;19.20;81.20
10233;DHT22;5161;48.174;11.756;2023-07-29T02:49:24;19.20;81.30
10233;DHT22;5161;48.174;11.756;2023-07-29T02:51:50;19.20;81.40
10233;DHT22;5161;48.174;11.756;2023-07-29T02:54:15;19.20;81.30
10233;DHT22;5161;48.174;11.756;2023-07-29T02:56:41;19.00;81.00
10233;DHT22;5161;48.174;11.756;2023-07-29T02:59:06;19.00;81.60
10233;DHT22;5161;48.174;11.756;2023-07-29T03:01:32;18.90;81.60
10233;DHT22;5161;48.174;11.756;2023-07-29T03:03:57;18.90;81.70
10233;DHT22;5161;48.174;11.756;2023-07-29T03:06:23;19.00;81.60
10233;DHT22;5161;48.174;11.756;2023-07-29T03:08:49;19.00;81.70
10233;DHT22;5161;48.174;11.756;2023-07-29T03:11:15;19.00;81.50
10233;DHT22;5161;48.174;11.756;2023-07-29T03:13:41;19.10;81.50
10233;DHT22;5161;48.174;11.756;2023-07-29T03:16:15;19.00;81.30
10233;DHT22;5161;48.174;11.756;2023-07-29T03:18:42;19.00;81.50
10233;DHT22;5161;48.174;11.756;2023-07-29T03:21:08;19.00;81.40
10233;DHT22;5161;48.174;11.756;2023-07-29T03:23:34;19.00;81.40
10233;DHT22;5161;48.174;11.756;2023-07-29T03:26:02;19.00;81.30
10233;DHT22;5161;48.174;11.756;2023-07-29T03:28:33;19.00;81.30
10233;DHT22;5161;48.174;11.756;2023-07-29T03:30:59;19.00;81.30
10233;DHT22;5161;48.174;11.756;2023-07-29T03:33:25;18.90;81.20
10233;DHT22;5161;48.174;11.756;2023-07-29T03:35:52;19.00;81.90
10233;DHT22;5161;48.174;11.756;2023-07-29T03:38:17;19.00;81.50
10233;DHT22;5161;48.174;11.756;2023-07-29T03:40:43;19.00;81.30
10233;DHT22;5161;48.174;11.756;2023-07-29T03:43:09;19.00;81.20
10233;DHT22;5161;48.174;11.756;2023-07-29T03:45:35;19.00;81.30
10233;DHT22;5161;48.174;11.756;2023-07-29T03:48:02;19.00;81.20
10233;DHT22;5161;48.174;11.756;2023-07-29T03:50:29;18.90;81.30
10233;DHT22;5161;48.174;11.756;2023-07-29T03:52:55;18.90;81.30
10233;DHT22;5161;48.174;11.756;2023-07-29T03:55:20;18.70;81.50
10233;DHT22;5161;48.174;11.756;2023-07-29T03:57:46;18.70;81.80
10233;DHT22;5161;48.174;11.756;2023-07-29T04:00:12;18.80;81.60
10233;DHT22;5161;48.174;11.756;2023-07-29T04:02:38;18.90;81.50
10233;DHT22;5161;48.174;11.756;2023-07-29T04:05:04;18.90;81.40
10233;DHT22;5161;48.174;11.756;2023-07-29T04:07:31;18.90;81.40
10233;DHT22;5161;48.174;11.756;2023-07-29T04:09:56;18.80;81.60
10233;DHT22;5161;48.174;11.756;2023-07-29T04:12:22;18.80;81.40
10233;DHT22;5161;48.174;11.756;2023-07-29T04:14:48;18.80;81.60
10233;DHT22;5161;48.174;11.756;2023-07-29T04:17:14;18.90;81.50
10233;DHT22;5161;48.174;11.756;2023-07-29T04:19:39;18.90;81.60
10233;DHT22;5161;48.174;11.756;2023-07-29T04:22:05;18.90;81.50
10233;DHT22;5161;48.174;11.756;2023-07-29T04:24:31;18.90;81.30
10233;DHT22;5161;48.174;11.756;2023-07-29T04:26:56;18.80;81.70
10233;DHT22;5161;48.174;11.756;2023-07-29T04:29:22;18.90;81.80
10233;DHT22;5161;48.174;11.756;2023-07-29T04:31:50;18.90;81.60
10233;DHT22;5161;48.174;11.756;2023-07-29T04:34:17;18.90;81.80
10233;DHT22;5161;48.174;11.756;2023-07-29T04:36:43;18.90;81.70
10233;DHT22;5161;48.174;11.756;2023-07-29T04:39:08;18.90;81.90
10233;DHT22;5161;48.174;11.756;2023-07-29T04:41:34;18.90;81.90
10233;DHT22;5161;48.174;11.756;2023-07-29T04:44:00;19.00;82.10
10233;DHT22;5161;48.174;11.756;2023-07-29T04:46:25;19.00;81.90
10233;DHT22;5161;48.174;11.756;2023-07-29T04:48:51;19.00;81.50
10233;DHT22;5161;48.174;11.756;2023-07-29T04:51:16;18.90;82.00
10233;DHT22;5161;48.174;11.756;2023-07-29T04:53:42;18.90;82.10
10233;DHT22;5161;48.174;11.756;2023-07-29T04:56:07;19.00;82.00
10233;DHT22;5161;48.174;11.756;2023-07-29T04:58:33;19.00;82.00
10233;DHT22;5161;48.174;11.756;2023-07-29T05:01:01;18.90;82.10
10233;DHT22;5161;48.174;11.756;2023-07-29T05:03:27;19.00;82.30
10233;DHT22;5161;48.174;11.756;2023-07-29T05:05:52;19.00;82.20
10233;DHT22;5161;48.174;11.756;2023-07-29T05:08:20;19.00;82.30
10233;DHT22;5161;48.174;11.756;2023-07-29T05:10:49;19.00;82.40
10233;DHT22;5161;48.174;11.756;2023-07-29T05:13:15;19.00;82.50
10233;DHT22;5161;48.174;11.756;2023-07-29T05:15:41;19.00;82.50
10233;DHT22;5161;48.174;11.756;2023-07-29T05:18:06;19.10;82.80
10233;DHT22;5161;48.174;11.756;2023-07-29T05:20:32;19.10;82.80
10233;DHT22;5161;48.174;11.756;2023-07-29T05:22:57;19.10;83.00
10233;DHT22;5161;48.174;11.756;2023-07-29T05:25:23;19.10;83.00
10233;DHT22;5161;48.174;11.756;2023-07-29T05:27:49;19.00;83.20
10233;DHT22;5161;48.174;11.756;2023-07-29T05:30:14;19.10;83.40
10233;DHT22;5161;48.174;11.756;2023-07-29T05:32:40;19.10;83.40
10233;DHT22;5161;48.174;11.756;2023-07-29T05:35:06;19.10;83.50
10233;DHT22;5161;48.174;11.756;2023-07-29T05:37:31;19.20;83.50
10233;DHT22;5161;48.174;11.756;2023-07-29T05:39:57;19.30;83.60
10233;DHT22;5161;48.174;11.756;2023-07-29T05:42:22;19.30;83.60
10233;DHT22;5161;48.174;11.756;2023-07-29T05:44:48;19.30;84.00
10233;DHT22;5161;48.174;11.756;2023-07-29T05:47:14;19.30;83.70
10233;DHT22;5161;48.174;11.756;2023-07-29T05:49:39;19.40;83.90
10233;DHT22;5161;48.174;11.756;2023-07-29T05:52:05;19.40;84.00
10233;DHT22;5161;48.174;11.756;2023-07-29T05:54:31;19.40;83.80
10233;DHT22;5161;48.174;11.756;2023-07-29T05:56:56;19.40;83.80
10233;DHT22;5161;48.174;11.756;2023-07-29T05:59:22;19.30;83.80
10233;DHT22;5161;48.174;11.756;2023-07-29T06:01:47;19.30;84.20
10233;DHT22;5161;48.174;11.756;2023-07-29T06:04:13;19.30;84.20
10233;DHT22;5161;48.174;11.756;2023-07-29T06:06:38;19.40;84.20
10233;DHT22;5161;48.174;11.756;2023-07-29T06:09:04;19.40;84.20
10233;DHT22;5161;48.174;11.756;2023-07-29T06:11:29;19.40;84.40
10233;DHT22;5161;48.174;11.756;2023-07-29T06:13:55;19.30;84.60
10233;DHT22;5161;48.174;11.756;2023-07-29T06:16:20;19.30;84.80
10233;DHT22;5161;48.174;11.756;2023-07-29T06:18:46;19.40;84.90
10233;DHT22;5161;48.174;11.756;2023-07-29T06:21:11;19.30;85.10
10233;DHT22;5161;48.174;11.756;2023-07-29T06:23:42;19.30;85.20
10233;DHT22;5161;48.174;11.756;2023-07-29T06:26:08;19.20;85.10
10233;DHT22;5161;48.174;11.756;2023-07-29T06:28:34;19.30;85.30
10233;DHT22;5161;48.174;11.756;2023-07-29T06:30:59;19.30;85.40
10233;DHT22;5161;48.174;11.756;2023-07-29T06:33:25;19.30;85.90
10233;DHT22;5161;48.174;11.756;2023-07-29T06:35:50;19.30;86.70
10233;DHT22;5161;48.174;11.756;2023-07-29T06:38:16;19.30;86.40
10233;DHT22;5161;48.174;11.756;2023-07-29T06:40:47;19.30;86.60
10233;DHT22;5161;48.174;11.756;2023-07-29T06:43:12;19.30;86.30
10233;DHT22;5161;48.174;11.756;2023-07-29T06:45:38;19.30;86.60
10233;DHT22;5161;48.174;11.756;2023-07-29T06:48:04;19.40;86.90
10233;DHT22;5161;48.174;11.756;2023-07-29T06:50:29;19.30;87.20
10233;DHT22;5161;48.174;11.756;2023-07-29T06:52:55;19.30;87.20
10233;DHT22;5161;48.174;11.756;2023-07-29T06:55:20;19.40;87.70
10233;DHT22;5161;48.174;11.756;2023-07-29T06:57:46;19.40;87.50
10233;DHT22;5161;48.174;11.756;2023-07-29T07:00:12;19.40;87.70
10233;DHT22;5161;48.174;11.756;2023-07-29T07:02:37;19.40;87.60
10233;DHT22;5161;48.174;11.756;2023-07-29T07:05:03;19.40;88.50
10233;DHT22;5161;48.174;11.756;2023-07-29T07:07:29;19.30;88.30
10233;DHT22;5161;48.174;11.756;2023-07-29T07:09:54;19.40;88.20
10233;DHT22;5161;48.174;11.756;2023-07-29T07:12:20;19.40;88.40
10233;DHT22;5161;48.174;11.756;2023-07-29T07:14:45;19.30;88.30
10233;DHT22;5161;48.174;11.756;2023-07-29T07:17:11;19.20;88.60
10233;DHT22;5161;48.174;11.756;2023-07-29T07:19:36;19.20;89.00
10233;DHT22;5161;48.174;11.756;2023-07-29T07:22:02;19.10;89.00
10233;DHT22;5161;48.174;11.756;2023-07-29T07:24:28;19.10;88.90
10233;DHT22;5161;48.174;11.756;2023-07-29T07:26:53;19.10;89.30
10233;DHT22;5161;48.174;11.756;2023-07-29T07:29:19;19.10;89.60
10233;DHT22;5161;48.174;11.756;2023-07-29T07:31:51;19.10;89.40
10233;DHT22;5161;48.174;11.756;2023-07-29T07:34:18;19.20;89.40
10233;DHT22;5161;48.174;11.756;2023-07-29T07:36:43;19.30;89.30
10233;DHT22;5161;48.174;11.756;2023-07-29T07:39:09;19.30;89.10
10233;DHT22;5161;48.174;11.756;2023-07-29T07:41:34;19.40;89.00
10233;DHT22;5161;48.174;11.756;2023-07-29T07:44:00;19.40;89.00
10233;DHT22;5161;48.174;11.756;2023-07-29T07:46:25;19.40;89.30
10233;DHT22;5161;48.174;11.756;2023-07-29T07:48:51;19.30;89.30
10233;DHT22;5161;48.174;11.756;2023-07-29T07:51:17;19.30;89.60
10233;DHT22;5161;48.174;11.756;2023-07-29T07:53:42;19.30;89.60
10233;DHT22;5161;48.174;11.756;2023-07-29T07:56:08;19.40;89.40
10233;DHT22;5161;48.174;11.756;2023-07-29T07:58:34;19.40;89.40
10233;DHT22;5161;48.174;11.756;2023-07-29T08:01:06;19.50;89.70
10233;DHT22;5161;48.174;11.756;2023-07-29T08:03:32;19.50;89.80
10233;DHT22;5161;48.174;11.756;2023-07-29T08:05:58;19.50;90.10
10233;DHT22;5161;48.174;11.756;2023-07-29T08:08:24;19.60;90.00
10233;DHT22;5161;48.174;11.756;2023-07-29T08:10:51;19.70;90.00
10233;DHT22;5161;48.174;11.756;2023-07-29T08:13:17;19.80;90.00
10233;DHT22;5161;48.174;11.756;2023-07-29T08:15:46;19.80;90.10
10233;DHT22;5161;48.174;11.756;2023-07-29T08:18:12;19.70;90.00
10233;DHT22;5161;48.174;11.756;2023-07-29T08:20:38;19.70;90.30
10233;DHT22;5161;48.174;11.756;2023-07-29T08:23:03;19.60;90.20
10233;DHT22;5161;48.174;11.756;2023-07-29T08:25:29;19.70;90.40
10233;DHT22;5161;48.174;11.756;2023-07-29T08:27:55;19.60;90.50
10233;DHT22;5161;48.174;11.756;2023-07-29T08:30:23;19.60;90.60
10233;DHT22;5161;48.174;11.756;2023-07-29T08:32:49;19.70;90.50
10233;DHT22;5161;48.174;11.756;2023-07-29T08:35:14;19.60;90.60
10233;DHT22;5161;48.174;11.756;2023-07-29T08:37:40;19.60;90.90
10233;DHT22;5161;48.174;11.756;2023-07-29T08:40:06;19.60;90.90
10233;DHT22;5161;48.174;11.756;2023-07-29T08:42:32;19.60;91.10
10233;DHT22;5161;48.174;11.756;2023-07-29T08:45:07;19.70;91.30
10233;DHT22;5161;48.174;11.756;2023-07-29T08:47:34;19.70;91.20
10233;DHT22;5161;48.174;11.756;2023-07-29T08:50:01;19.80;91.30
10233;DHT22;5161;48.174;11.756;2023-07-29T08:52:27;19.80;91.30
10233;DHT22;5161;48.174;11.756;2023-07-29T08:54:54;19.90;91.40
10233;DHT22;5161;48.174;11.756;2023-07-29T08:57:20;19.90;91.30
10233;DHT22;5161;48.174;11.756;2023-07-29T08:59:47;20.00;91.40
10233;DHT22;5161;48.174;11.756;2023-07-29T09:02:12;20.00;91.40
10233;DHT22;5161;48.174;11.756;2023-07-29T09:04:38;20.00;91.60
10233;DHT22;5161;48.174;11.756;2023-07-29T09:07:05;20.00;91.30
10233;DHT22;5161;48.174;11.756;2023-07-29T09:09:32;20.00;91.40
10233;DHT22;5161;48.174;11.756;2023-07-29T09:11:57;20.10;91.60
10233;DHT22;5161;48.174;11.756;2023-07-29T09:14:23;20.10;91.40
10233;DHT22;5161;48.174;11.756;2023-07-29T09:16:49;20.10;91.40
10233;DHT22;5161;48.174;11.756;2023-07-29T09:19:15;20.20;91.60
10233;DHT22;5161;48.174;11.756;2023-07-29T09:21:42;20.20;91.60
10233;DHT22;5161;48.174;11.756;2023-07-29T09:24:08;20.20;91.50
10233;DHT22;5161;48.174;11.756;2023-07-29T09:26:35;20.30;91.60
10233;DHT22;5161;48.174;11.756;2023-07-29T09:29:00;20.30;91.40
10233;DHT22;5161;48.174;11.756;2023-07-29T09:31:28;20.40;91.60
10233;DHT22;5161;48.174;11.756;2023-07-29T09:34:01;20.40;91.90
10233;DHT22;5161;48.174;11.756;2023-07-29T09:36:30;20.40;91.50
10233;DHT22;5161;48.174;11.756;2023-07-29T09:38:56;20.50;91.50
10233;DHT22;5161;48.174;11.756;2023-07-29T09:41:26;20.50;92.00
10233;DHT22;5161;48.174;11.756;2023-07-29T09:44:00;20.60;91.80
10233;DHT22;5161;48.174;11.756;2023-07-29T09:46:37;20.60;91.60
10233;DHT22;5161;48.174;11.756;2023-07-29T09:49:04;20.70;91.40
10233;DHT22;5161;48.174;11.756;2023-07-29T09:51:29;20.80;90.90
10233;DHT22;5161;48.174;11.756;2023-07-29T09:53:55;20.80;90.90
10233;DHT22;5161;48.174;11.756;2023-07-29T09:56:25;20.80;90.00
10233;DHT22;5161;48.174;11.756;2023-07-29T09:58:57;20.90;90.50
10233;DHT22;5161;48.174;11.756;2023-07-29T10:01:23;20.90;90.00
10233;DHT22;5161;48.174;11.756;2023-07-29T10:03:49;21.00;89.80
10233;DHT22;5161;48.174;11.756;2023-07-29T10:06:15;21.10;90.40
10233;DHT22;5161;48.174;11.756;2023-07-29T10:08:42;21.10;90.70
10233;DHT22;5161;48.174;11.756;2023-07-29T10:11:09;21.20;90.10
10233;DHT22;5161;48.174;11.756;2023-07-29T10:13:36;21.30;89.30
10233;DHT22;5161;48.174;11.756;2023-07-29T10:16:02;21.30;89.00
10233;DHT22;5161;48.174;11.756;2023-07-29T10:18:29;21.30;89.50
10233;DHT22;5161;48.174;11.756;2023-07-29T10:20:57;21.40;88.70
10233;DHT22;5161;48.174;11.756;2023-07-29T10:23:26;21.50;87.80
10233;DHT22;5161;48.174;11.756;2023-07-29T10:26:10;21.50;88.20
10233;DHT22;5161;48.174;11.756;2023-07-29T10:28:40;21.60;86.90
10233;DHT22;5161;48.174;11.756;2023-07-29T10:31:06;21.60;87.40
10233;DHT22;5161;48.174;11.756;2023-07-29T10:33:34;21.70;87.50
10233;DHT22;5161;48.174;11.756;2023-07-29T10:36:00;21.70;87.20
10233;DHT22;5161;48.174;11.756;2023-07-29T10:38:26;21.70;87.50
10233;DHT22;5161;48.174;11.756;2023-07-29T10:40:56;21.80;85.60
10233;DHT22;5161;48.174;11.756;2023-07-29T10:43:33;21.80;87.20
10233;DHT22;5161;48.174;11.756;2023-07-29T10:46:15;21.90;86.10
10233;DHT22;5161;48.174;11.756;2023-07-29T10:48:44;22.00;87.00
10233;DHT22;5161;48.174;11.756;2023-07-29T10:51:36;22.10;86.50
10233;DHT22;5161;48.174;11.756;2023-07-29T10:56:34;22.20;85.90
10233;DHT22;5161;48.174;11.756;2023-07-29T11:01:57;22.60;81.60
10233;DHT22;5161;48.174;11.756;2023-07-29T11:04:28;22.70;82.90
10233;DHT22;5161;48.174;11.756;2023-07-29T11:07:19;22.80;81.00
10233;DHT22;5161;48.174;11.756;2023-07-29T11:17:37;22.80;81.80
10233;DHT22;5161;48.174;11.756;2023-07-29T11:20:04;22.80;82.00
10233;DHT22;5161;48.174;11.756;2023-07-29T11:22:30;22.80;82.40
10233;DHT22;5161;48.174;11.756;2023-07-29T11:24:56;22.80;82.60
10233;DHT22;5161;48.174;11.756;2023-07-29T11:27:22;22.70;81.90
10233;DHT22;5161;48.174;11.756;2023-07-29T11:29:48;22.60;82.10
10233;DHT22;5161;48.174;11.756;2023-07-29T11:32:15;22.50;82.30
10233;DHT22;5161;48.174;11.756;2023-07-29T11:34:41;22.30;80.90
10233;DHT22;5161;48.174;11.756;2023-07-29T11:37:10;22.30;81.00
10233;DHT22;5161;48.174;11.756;2023-07-29T11:39:40;22.20;80.80
10233;DHT22;5161;48.174;11.756;2023-07-29T11:42:06;22.20;81.30
10233;DHT22;5161;48.174;11.756;2023-07-29T11:44:32;22.10;79.70
10233;DHT22;5161;48.174;11.756;2023-07-29T11:46:58;22.10;80.00
10233;DHT22;5161;48.174;11.756;2023-07-29T11:49:35;22.10;81.60
10233;DHT22;5161;48.174;11.756;2023-07-29T11:52:09;22.10;82.30
10233;DHT22;5161;48.174;11.756;2023-07-29T11:54:38;22.10;82.20
10233;DHT22;5161;48.174;11.756;2023-07-29T11:57:08;22.20;82.00
10233;DHT22;5161;48.174;11.756;2023-07-29T11:59:37;22.10;80.70
10233;DHT22;5161;48.174;11.756;2023-07-29T12:02:11;22.20;81.30
10233;DHT22;5161;48.174;11.756;2023-07-29T12:04:38;22.20;79.00
10233;DHT22;5161;48.174;11.756;2023-07-29T12:07:04;22.20;79.40
10233;DHT22;5161;48.174;11.756;2023-07-29T12:09:30;22.30;79.00
10233;DHT22;5161;48.174;11.756;2023-07-29T12:11:56;22.30;78.90
10233;DHT22;5161;48.174;11.756;2023-07-29T12:14:26;22.40;79.70
10233;DHT22;5161;48.174;11.756;2023-07-29T12:16:52;22.50;80.10
10233;DHT22;5161;48.174;11.756;2023-07-29T12:19:18;22.50;79.80
10233;DHT22;5161;48.174;11.756;2023-07-29T12:21:44;22.60;79.20
10233;DHT22;5161;48.174;11.756;2023-07-29T12:24:12;22.70;78.70
10233;DHT22;5161;48.174;11.756;2023-07-29T12:26:39;22.70;78.20
10233;DHT22;5161;48.174;11.756;2023-07-29T12:29:12;22.70;79.00
10233;DHT22;5161;48.174;11.756;2023-07-29T12:31:38;22.80;78.50
10233;DHT22;5161;48.174;11.756;2023-07-29T12:34:04;22.80;78.70
10233;DHT22;5161;48.174;11.756;2023-07-29T12:36:50;22.80;79.30
10233;DHT22;5161;48.174;11.756;2023-07-29T12:41:50;22.90;78.20
10233;DHT22;5161;48.174;11.756;2023-07-29T12:44:15;22.90;78.90
10233;DHT22;5161;48.174;11.756;2023-07-29T12:46:41;22.80;78.20
10233;DHT22;5161;48.174;11.756;2023-07-29T12:49:07;22.80;78.70
10233;DHT22;5161;48.174;11.756;2023-07-29T12:51:33;22.80;79.00
10233;DHT22;5161;48.174;11.756;2023-07-29T12:53:58;22.70;79.20
10233;DHT22;5161;48.174;11.756;2023-07-29T12:56:24;22.70;79.50
10233;DHT22;5161;48.174;11.756;2023-07-29T12:58:49;22.70;79.50
10233;DHT22;5161;48.174;11.756;2023-07-29T13:01:15;22.70;80.30
10233;DHT22;5161;48.174;11.756;2023-07-29T13:03:44;22.60;80.10
10233;DHT22;5161;48.174;11.756;2023-07-29T13:06:10;22.60;81.10
10233;DHT22;5161;48.174;11.756;2023-07-29T13:08:36;22.60;83.10
10233;DHT22;5161;48.174;11.756;2023-07-29T13:11:02;22.40;85.10
10233;DHT22;5161;48.174;11.756;2023-07-29T13:13:27;22.40;85.40
10233;DHT22;5161;48.174;11.756;2023-07-29T13:15:53;22.30;83.70
10233;DHT22;5161;48.174;11.756;2023-07-29T13:18:18;22.20;84.10
10233;DHT22;5161;48.174;11.756;2023-07-29T13:20:44;22.10;84.30
10233;DHT22;5161;48.174;11.756;2023-07-29T13:23:09;22.10;83.90
10233;DHT22;5161;48.174;11.756;2023-07-29T13:25:35;22.10;84.00
10233;DHT22;5161;48.174;11.756;2023-07-29T13:28:01;22.00;83.80
10233;DHT22;5161;48.174;11.756;2023-07-29T13:30:26;22.00;84.00
10233;DHT22;5161;48.174;11.756;2023-07-29T13:32:52;21.90;83.70
10233;DHT22;5161;48.174;11.756;2023-07-29T13:35:17;21.80;83.60
10233;DHT22;5161;48.174;11.756;2023-07-29T13:37:43;21.80;84.30
10233;DHT22;5161;48.174;11.756;2023-07-29T13:40:08;21.80;85.20
10233;DHT22;5161;48.174;11.756;2023-07-29T13:42:34;21.80;85.50
10233;DHT22;5161;48.174;11.756;2023-07-29T13:45:00;21.90;85.40
10233;DHT22;5161;48.174;11.756;2023-07-29T13:47:26;21.90;85.30
10233;DHT22;5161;48.174;11.756;2023-07-29T13:49:51;21.90;85.70
10233;DHT22;5161;48.174;11.756;2023-07-29T13:52:17;21.90;86.20
10233;DHT22;5161;48.174;11.756;2023-07-29T13:54:42;21.90;86.30
10233;DHT22;5161;48.174;11.756;2023-07-29T13:57:08;21.90;86.50
10233;DHT22;5161;48.174;11.756;2023-07-29T13:59:35;21.90;87.20
10233;DHT22;5161;48.174;11.756;2023-07-29T14:02:04;21.90;86.90
10233;DHT22;5161;48.174;11.756;2023-07-29T14:04:30;21.90;87.70
10233;DHT22;5161;48.174;11.756;2023-07-29T14:06:55;21.90;87.60
10233;DHT22;5161;48.174;11.756;2023-07-29T14:09:21;21.90;87.70
10233;DHT22;5161;48.174;11.756;2023-07-29T14:11:46;21.90;88.10
10233;DHT22;5161;48.174;11.756;2023-07-29T14:14:12;21.90;88.30
10233;DHT22;5161;48.174;11.756;2023-07-29T14:16:37;22.00;88.70
10233;DHT22;5161;48.174;11.756;2023-07-29T14:19:04;21.90;88.60
10233;DHT22;5161;48.174;11.756;2023-07-29T14:21:30;21.90;88.80
10233;DHT22;5161;48.174;11.756;2023-07-29T14:23:55;21.90;88.90
10233;DHT22;5161;48.174;11.756;2023-07-29T14:26:21;21.90;88.90
10233;DHT22;5161;48.174;11.756;2023-07-29T14:28:46;21.90;88.90
10233;DHT22;5161;48.174;11.756;2023-07-29T14:31:12;21.90;89.00
10233;DHT22;5161;48.174;11.756;2023-07-29T14:33:38;21.90;89.20
10233;DHT22;5161;48.174;11.756;2023-07-29T14:36:04;21.80;89.00
10233;DHT22;5161;48.174;11.756;2023-07-29T14:38:30;21.80;89.10
10233;DHT22;5161;48.174;11.756;2023-07-29T14:40:55;21.90;89.20
10233;DHT22;5161;48.174;11.756;2023-07-29T14:43:22;21.90;89.30
10233;DHT22;5161;48.174;11.756;2023-07-29T14:45:48;21.80;89.10
10233;DHT22;5161;48.174;11.756;2023-07-29T14:48:14;21.80;89.30
10233;DHT22;5161;48.174;11.756;2023-07-29T14:50:39;21.80;89.30
10233;DHT22;5161;48.174;11.756;2023-07-29T14:53:05;21.80;89.30
10233;DHT22;5161;48.174;11.756;2023-07-29T14:59:21;21.80;89.90
10233;DHT22;5161;48.174;11.756;2023-07-29T15:02:39;21.70;90.10
10233;DHT22;5161;48.174;11.756;2023-07-29T15:05:01;21.70;90.10
10233;DHT22;5161;48.174;11.756;2023-07-29T15:11:02;21.70;90.20
10233;DHT22;5161;48.174;11.756;2023-07-29T15:13:27;21.70;90.00
10233;DHT22;5161;48.174;11.756;2023-07-29T15:15:53;21.70;89.90
10233;DHT22;5161;48.174;11.756;2023-07-29T15:18:18;21.70;89.90
10233;DHT22;5161;48.174;11.756;2023-07-29T15:20:49;21.70;89.90
10233;DHT22;5161;48.174;11.756;2023-07-29T15:29:24;21.60;89.70
10233;DHT22;5161;48.174;11.756;2023-07-29T15:31:49;21.60;89.60
10233;DHT22;5161;48.174;11.756;2023-07-29T15:34:15;21.60;89.60
10233;DHT22;5161;48.174;11.756;2023-07-29T15:36:41;21.60;89.60
10233;DHT22;5161;48.174;11.756;2023-07-29T15:39:07;21.60;89.60
10233;DHT22;5161;48.174;11.756;2023-07-29T15:41:34;21.60;89.70
10233;DHT22;5161;48.174;11.756;2023-07-29T15:44:00;21.60;89.50
10233;DHT22;5161;48.174;11.756;2023-07-29T15:46:25;21.60;89.60
10233;DHT22;5161;48.174;11.756;2023-07-29T15:48:51;21.50;89.60
10233;DHT22;5161;48.174;11.756;2023-07-29T15:51:16;21.50;89.60
10233;DHT22;5161;48.174;11.756;2023-07-29T15:53:42;21.50;89.40
10233;DHT22;5161;48.174;11.756;2023-07-29T15:56:08;21.50;89.30
10233;DHT22;5161;48.174;11.756;2023-07-29T15:58:33;21.50;89.50